sensor_id;sensor_type;location;lat;lon;timestamp;P1;durP1;ratioP1;P2;durP2;ratioP2
26965;SDS011;14522;52.068;4.414;2023-03-23T00:01:17;5.38;;;1.98;;
26965;SDS011;14522;52.068;4.414;2023-03-23T00:03:47;4.93;;;1.42;;
26965;SDS011;14522;52.068;4.414;2023-03-23T00:06:13;5.28;;;1.42;;
26965;SDS011;14522;52.068;4.414;2023-03-23T00:08:46;2.78;;;1.60;;
26965;SDS011;14522;52.068;4.414;2023-03-23T00:11:13;9.63;;;1.70;;
26965;SDS011;14522;52.068;4.414;2023-03-23T00:13:39;5.38;;;1.67;;
26965;SDS011;14522;52.068;4.414;2023-03-23T00:16:07;3.83;;;1.63;;
26965;SDS011;14522;52.068;4.414;2023-03-23T00:18:43;4.80;;;1.85;;
26965;SDS011;14522;52.068;4.414;2023-03-23T00:21:08;5.35;;;1.45;;
26965;SDS011;14522;52.068;4.414;2023-03-23T00:23:33;5.20;;;1.70;;
26965;SDS011;14522;52.068;4.414;2023-03-23T00:25:59;5.63;;;1.65;;
26965;SDS011;14522;52.068;4.414;2023-03-23T00:28:25;8.02;;;1.70;;
26965;SDS011;14522;52.068;4.414;2023-03-23T00:30:57;7.97;;;1.95;;
26965;SDS011;14522;52.068;4.414;2023-03-23T00:33:24;4.60;;;1.50;;
26965;SDS011;14522;52.068;4.414;2023-03-23T00:35:50;3.92;;;1.50;;
26965;SDS011;14522;52.068;4.414;2023-03-23T00:38:18;3.58;;;1.63;;
26965;SDS011;14522;52.068;4.414;2023-03-23T00:40:43;7.25;;;1.88;;
26965;SDS011;14522;52.068;4.414;2023-03-23T00:43:08;4.43;;;1.70;;
26965;SDS011;14522;52.068;4.414;2023-03-23T00:45:38;2.97;;;1.48;;
26965;SDS011;14522;52.068;4.414;2023-03-23T00:48:04;4.00;;;1.60;;
26965;SDS011;14522;52.068;4.414;2023-03-23T00:50:30;6.82;;;1.70;;
26965;SDS011;14522;52.068;4.414;2023-03-23T00:52:56;3.08;;;1.58;;
26965;SDS011;14522;52.068;4.414;2023-03-23T00:55:22;6.20;;;1.63;;
26965;SDS011;14522;52.068;4.414;2023-03-23T00:57:47;4.20;;;1.15;;
26965;SDS011;14522;52.068;4.414;2023-03-23T01:00:15;7.28;;;1.65;;
26965;SDS011;14522;52.068;4.414;2023-03-23T01:02:41;5.45;;;1.50;;
26965;SDS011;14522;52.068;4.414;2023-03-23T01:05:09;6.28;;;1.65;;
26965;SDS011;14522;52.068;4.414;2023-03-23T01:07:34;5.43;;;1.42;;
26965;SDS011;14522;52.068;4.414;2023-03-23T01:10:00;3.75;;;1.67;;
26965;SDS011;14522;52.068;4.414;2023-03-23T01:12:26;2.65;;;1.20;;
26965;SDS011;14522;52.068;4.414;2023-03-23T01:14:52;5.18;;;1.70;;
26965;SDS011;14522;52.068;4.414;2023-03-23T01:17:17;2.75;;;0.93;;
26965;SDS011;14522;52.068;4.414;2023-03-23T01:19:44;5.63;;;1.40;;
26965;SDS011;14522;52.068;4.414;2023-03-23T01:25:32;8.27;;;1.60;;
26965;SDS011;14522;52.068;4.414;2023-03-23T01:27:57;4.45;;;1.40;;
26965;SDS011;14522;52.068;4.414;2023-03-23T01:30:23;5.30;;;1.63;;
26965;SDS011;14522;52.068;4.414;2023-03-23T01:32:49;3.78;;;1.60;;
26965;SDS011;14522;52.068;4.414;2023-03-23T01:35:15;4.82;;;1.90;;
26965;SDS011;14522;52.068;4.414;2023-03-23T01:37:40;3.10;;;1.55;;
26965;SDS011;14522;52.068;4.414;2023-03-23T01:40:06;5.13;;;1.52;;
26965;SDS011;14522;52.068;4.414;2023-03-23T01:42:33;5.97;;;1.40;;
26965;SDS011;14522;52.068;4.414;2023-03-23T01:45:22;4.47;;;1.35;;
26965;SDS011;14522;52.068;4.414;2023-03-23T01:47:44;7.38;;;1.67;;
26965;SDS011;14522;52.068;4.414;2023-03-23T01:50:10;3.08;;;1.35;;
26965;SDS011;14522;52.068;4.414;2023-03-23T01:52:35;3.83;;;1.48;;
26965;SDS011;14522;52.068;4.414;2023-03-23T01:55:01;5.72;;;1.70;;
26965;SDS011;14522;52.068;4.414;2023-03-23T01:57:27;5.03;;;1.65;;
26965;SDS011;14522;52.068;4.414;2023-03-23T01:59:55;2.25;;;1.30;;
26965;SDS011;14522;52.068;4.414;2023-03-23T02:02:23;3.83;;;1.45;;
26965;SDS011;14522;52.068;4.414;2023-03-23T02:04:49;5.88;;;1.40;;
26965;SDS011;14522;52.068;4.414;2023-03-23T02:07:15;4.28;;;1.85;;
26965;SDS011;14522;52.068;4.414;2023-03-23T02:09:42;3.35;;;1.30;;
26965;SDS011;14522;52.068;4.414;2023-03-23T02:12:07;3.20;;;1.30;;
26965;SDS011;14522;52.068;4.414;2023-03-23T02:14:32;4.15;;;1.38;;
26965;SDS011;14522;52.068;4.414;2023-03-23T02:24:48;4.53;;;1.55;;
26965;SDS011;14522;52.068;4.414;2023-03-23T02:30:11;1.60;;;0.85;;
26965;SDS011;14522;52.068;4.414;2023-03-23T02:40:42;2.30;;;1.15;;
26965;SDS011;14522;52.068;4.414;2023-03-23T02:43:10;4.30;;;1.45;;
26965;SDS011;14522;52.068;4.414;2023-03-23T02:45:38;6.55;;;1.20;;
26965;SDS011;14522;52.068;4.414;2023-03-23T02:48:04;3.63;;;1.10;;
26965;SDS011;14522;52.068;4.414;2023-03-23T02:50:30;2.58;;;0.85;;
26965;SDS011;14522;52.068;4.414;2023-03-23T02:52:56;6.55;;;1.55;;
26965;SDS011;14522;52.068;4.414;2023-03-23T02:55:23;3.72;;;1.17;;
26965;SDS011;14522;52.068;4.414;2023-03-23T02:57:50;9.30;;;1.25;;
26965;SDS011;14522;52.068;4.414;2023-03-23T03:00:15;6.00;;;1.20;;
26965;SDS011;14522;52.068;4.414;2023-03-23T03:02:44;4.72;;;1.08;;
26965;SDS011;14522;52.068;4.414;2023-03-23T03:10:16;2.67;;;0.90;;
26965;SDS011;14522;52.068;4.414;2023-03-23T03:17:41;9.40;;;1.25;;
26965;SDS011;14522;52.068;4.414;2023-03-23T03:20:08;3.85;;;0.98;;
26965;SDS011;14522;52.068;4.414;2023-03-23T03:22:36;4.68;;;1.20;;
26965;SDS011;14522;52.068;4.414;2023-03-23T03:25:03;2.55;;;0.82;;
26965;SDS011;14522;52.068;4.414;2023-03-23T03:27:29;2.35;;;1.05;;
26965;SDS011;14522;52.068;4.414;2023-03-23T03:29:57;4.53;;;1.17;;
26965;SDS011;14522;52.068;4.414;2023-03-23T03:32:25;4.53;;;1.40;;
26965;SDS011;14522;52.068;4.414;2023-03-23T03:34:58;3.47;;;1.17;;
26965;SDS011;14522;52.068;4.414;2023-03-23T03:37:23;5.93;;;1.10;;
26965;SDS011;14522;52.068;4.414;2023-03-23T03:39:49;9.32;;;1.77;;
26965;SDS011;14522;52.068;4.414;2023-03-23T03:42:15;2.92;;;0.80;;
26965;SDS011;14522;52.068;4.414;2023-03-23T03:44:41;3.85;;;1.10;;
26965;SDS011;14522;52.068;4.414;2023-03-23T03:47:06;3.25;;;1.05;;
26965;SDS011;14522;52.068;4.414;2023-03-23T03:49:32;4.57;;;0.90;;
26965;SDS011;14522;52.068;4.414;2023-03-23T03:51:57;3.10;;;0.80;;
26965;SDS011;14522;52.068;4.414;2023-03-23T03:54:22;4.03;;;1.38;;
26965;SDS011;14522;52.068;4.414;2023-03-23T03:56:48;4.40;;;1.23;;
26965;SDS011;14522;52.068;4.414;2023-03-23T04:01:57;7.63;;;1.17;;
26965;SDS011;14522;52.068;4.414;2023-03-23T04:04:23;5.28;;;1.13;;
26965;SDS011;14522;52.068;4.414;2023-03-23T04:06:48;5.45;;;1.10;;
26965;SDS011;14522;52.068;4.414;2023-03-23T04:09:14;5.45;;;1.25;;
26965;SDS011;14522;52.068;4.414;2023-03-23T04:11:39;4.07;;;1.00;;
26965;SDS011;14522;52.068;4.414;2023-03-23T04:14:04;5.20;;;1.05;;
26965;SDS011;14522;52.068;4.414;2023-03-23T04:16:30;5.72;;;1.02;;
26965;SDS011;14522;52.068;4.414;2023-03-23T04:18:56;3.80;;;1.00;;
26965;SDS011;14522;52.068;4.414;2023-03-23T04:21:21;12.95;;;1.98;;
26965;SDS011;14522;52.068;4.414;2023-03-23T04:23:46;4.28;;;1.23;;
26965;SDS011;14522;52.068;4.414;2023-03-23T04:26:12;7.82;;;1.10;;
26965;SDS011;14522;52.068;4.414;2023-03-23T04:28:38;6.43;;;1.23;;
26965;SDS011;14522;52.068;4.414;2023-03-23T04:31:03;6.57;;;1.15;;
26965;SDS011;14522;52.068;4.414;2023-03-23T04:33:29;7.30;;;1.35;;
26965;SDS011;14522;52.068;4.414;2023-03-23T04:35:56;13.43;;;1.48;;
26965;SDS011;14522;52.068;4.414;2023-03-23T04:38:26;7.72;;;1.80;;
26965;SDS011;14522;52.068;4.414;2023-03-23T04:40:52;6.65;;;1.23;;
26965;SDS011;14522;52.068;4.414;2023-03-23T04:43:18;6.95;;;1.25;;
26965;SDS011;14522;52.068;4.414;2023-03-23T04:45:46;10.25;;;1.88;;
26965;SDS011;14522;52.068;4.414;2023-03-23T04:48:12;12.40;;;1.50;;
26965;SDS011;14522;52.068;4.414;2023-03-23T04:50:37;7.40;;;1.45;;
26965;SDS011;14522;52.068;4.414;2023-03-23T04:53:03;10.88;;;1.30;;
26965;SDS011;14522;52.068;4.414;2023-03-23T04:55:30;14.15;;;2.53;;
26965;SDS011;14522;52.068;4.414;2023-03-23T04:57:56;12.90;;;1.73;;
26965;SDS011;14522;52.068;4.414;2023-03-23T05:00:25;13.82;;;2.65;;
26965;SDS011;14522;52.068;4.414;2023-03-23T05:02:50;8.02;;;1.90;;
26965;SDS011;14522;52.068;4.414;2023-03-23T05:05:16;13.93;;;2.10;;
26965;SDS011;14522;52.068;4.414;2023-03-23T05:07:42;20.77;;;2.63;;
26965;SDS011;14522;52.068;4.414;2023-03-23T05:10:08;10.43;;;1.58;;
26965;SDS011;14522;52.068;4.414;2023-03-23T05:12:34;18.98;;;3.83;;
26965;SDS011;14522;52.068;4.414;2023-03-23T05:15:00;9.40;;;1.95;;
26965;SDS011;14522;52.068;4.414;2023-03-23T05:17:25;9.68;;;1.67;;
26965;SDS011;14522;52.068;4.414;2023-03-23T05:19:51;16.23;;;2.08;;
26965;SDS011;14522;52.068;4.414;2023-03-23T05:22:16;8.20;;;1.90;;
26965;SDS011;14522;52.068;4.414;2023-03-23T05:24:42;12.68;;;1.85;;
26965;SDS011;14522;52.068;4.414;2023-03-23T05:27:08;16.23;;;1.80;;
26965;SDS011;14522;52.068;4.414;2023-03-23T05:29:34;15.25;;;2.10;;
26965;SDS011;14522;52.068;4.414;2023-03-23T05:32:04;20.40;;;2.38;;
26965;SDS011;14522;52.068;4.414;2023-03-23T05:34:31;14.52;;;2.05;;
26965;SDS011;14522;52.068;4.414;2023-03-23T05:36:59;14.50;;;2.25;;
26965;SDS011;14522;52.068;4.414;2023-03-23T05:39:25;12.50;;;2.22;;
26965;SDS011;14522;52.068;4.414;2023-03-23T05:41:51;14.55;;;2.85;;
26965;SDS011;14522;52.068;4.414;2023-03-23T05:44:17;18.67;;;3.20;;
26965;SDS011;14522;52.068;4.414;2023-03-23T05:46:43;15.00;;;2.67;;
26965;SDS011;14522;52.068;4.414;2023-03-23T05:49:08;13.98;;;1.98;;
26965;SDS011;14522;52.068;4.414;2023-03-23T05:51:34;15.57;;;2.20;;
26965;SDS011;14522;52.068;4.414;2023-03-23T05:54:01;12.30;;;2.55;;
26965;SDS011;14522;52.068;4.414;2023-03-23T05:56:27;15.45;;;2.53;;
26965;SDS011;14522;52.068;4.414;2023-03-23T05:58:54;14.50;;;2.47;;
26965;SDS011;14522;52.068;4.414;2023-03-23T06:01:19;16.65;;;2.78;;
26965;SDS011;14522;52.068;4.414;2023-03-23T06:03:44;13.10;;;2.60;;
26965;SDS011;14522;52.068;4.414;2023-03-23T06:06:10;24.65;;;3.28;;
26965;SDS011;14522;52.068;4.414;2023-03-23T06:08:37;15.57;;;2.58;;
26965;SDS011;14522;52.068;4.414;2023-03-23T06:11:03;14.70;;;2.60;;
26965;SDS011;14522;52.068;4.414;2023-03-23T06:13:29;14.73;;;2.65;;
26965;SDS011;14522;52.068;4.414;2023-03-23T06:15:55;14.13;;;2.13;;
26965;SDS011;14522;52.068;4.414;2023-03-23T06:18:24;13.10;;;2.17;;
26965;SDS011;14522;52.068;4.414;2023-03-23T06:20:49;19.20;;;2.90;;
26965;SDS011;14522;52.068;4.414;2023-03-23T06:23:16;14.98;;;2.72;;
26965;SDS011;14522;52.068;4.414;2023-03-23T06:25:41;15.13;;;3.70;;
26965;SDS011;14522;52.068;4.414;2023-03-23T06:28:07;17.58;;;2.67;;
26965;SDS011;14522;52.068;4.414;2023-03-23T06:30:34;15.60;;;2.20;;
26965;SDS011;14522;52.068;4.414;2023-03-23T06:33:00;12.75;;;2.58;;
26965;SDS011;14522;52.068;4.414;2023-03-23T06:35:25;13.15;;;2.53;;
26965;SDS011;14522;52.068;4.414;2023-03-23T06:37:51;22.80;;;3.70;;
26965;SDS011;14522;52.068;4.414;2023-03-23T06:40:19;16.13;;;2.58;;
26965;SDS011;14522;52.068;4.414;2023-03-23T06:42:46;19.80;;;3.13;;
26965;SDS011;14522;52.068;4.414;2023-03-23T06:45:11;14.20;;;3.15;;
26965;SDS011;14522;52.068;4.414;2023-03-23T06:47:37;8.00;;;1.48;;
26965;SDS011;14522;52.068;4.414;2023-03-23T06:50:02;6.68;;;1.80;;
26965;SDS011;14522;52.068;4.414;2023-03-23T06:52:27;14.77;;;1.88;;
26965;SDS011;14522;52.068;4.414;2023-03-23T06:54:53;13.15;;;1.73;;
26965;SDS011;14522;52.068;4.414;2023-03-23T06:57:19;15.48;;;2.42;;
26965;SDS011;14522;52.068;4.414;2023-03-23T06:59:44;15.10;;;2.22;;
26965;SDS011;14522;52.068;4.414;2023-03-23T07:02:13;9.73;;;1.83;;
26965;SDS011;14522;52.068;4.414;2023-03-23T07:04:39;10.45;;;2.00;;
26965;SDS011;14522;52.068;4.414;2023-03-23T07:07:07;7.60;;;1.63;;
26965;SDS011;14522;52.068;4.414;2023-03-23T07:09:32;10.13;;;1.80;;
26965;SDS011;14522;52.068;4.414;2023-03-23T07:11:57;13.68;;;2.30;;
26965;SDS011;14522;52.068;4.414;2023-03-23T07:14:23;12.85;;;1.90;;
26965;SDS011;14522;52.068;4.414;2023-03-23T07:16:48;13.38;;;1.75;;
26965;SDS011;14522;52.068;4.414;2023-03-23T07:19:14;15.07;;;2.17;;
26965;SDS011;14522;52.068;4.414;2023-03-23T07:21:39;14.82;;;2.47;;
26965;SDS011;14522;52.068;4.414;2023-03-23T07:24:05;13.57;;;1.50;;
26965;SDS011;14522;52.068;4.414;2023-03-23T07:26:31;8.98;;;2.17;;
26965;SDS011;14522;52.068;4.414;2023-03-23T07:28:56;8.65;;;1.60;;
26965;SDS011;14522;52.068;4.414;2023-03-23T07:31:22;9.45;;;1.67;;
26965;SDS011;14522;52.068;4.414;2023-03-23T07:33:47;12.88;;;2.10;;
26965;SDS011;14522;52.068;4.414;2023-03-23T07:36:15;14.25;;;2.20;;
26965;SDS011;14522;52.068;4.414;2023-03-23T07:38:41;9.75;;;2.00;;
26965;SDS011;14522;52.068;4.414;2023-03-23T07:41:07;7.70;;;1.80;;
26965;SDS011;14522;52.068;4.414;2023-03-23T07:43:32;12.82;;;2.55;;
26965;SDS011;14522;52.068;4.414;2023-03-23T07:45:59;10.80;;;1.95;;
26965;SDS011;14522;52.068;4.414;2023-03-23T07:48:24;7.78;;;1.25;;
26965;SDS011;14522;52.068;4.414;2023-03-23T07:50:50;12.05;;;1.77;;
26965;SDS011;14522;52.068;4.414;2023-03-23T07:53:15;11.80;;;1.90;;
26965;SDS011;14522;52.068;4.414;2023-03-23T07:55:41;10.60;;;1.70;;
26965;SDS011;14522;52.068;4.414;2023-03-23T07:58:06;11.75;;;2.22;;
26965;SDS011;14522;52.068;4.414;2023-03-23T08:00:32;13.57;;;2.15;;
26965;SDS011;14522;52.068;4.414;2023-03-23T08:02:58;7.40;;;1.90;;
26965;SDS011;14522;52.068;4.414;2023-03-23T08:05:24;10.90;;;2.25;;
26965;SDS011;14522;52.068;4.414;2023-03-23T08:07:51;9.32;;;1.88;;
26965;SDS011;14522;52.068;4.414;2023-03-23T08:10:17;12.50;;;1.90;;
26965;SDS011;14522;52.068;4.414;2023-03-23T08:12:43;15.32;;;2.53;;
26965;SDS011;14522;52.068;4.414;2023-03-23T08:15:09;9.13;;;1.80;;
26965;SDS011;14522;52.068;4.414;2023-03-23T08:17:37;10.68;;;2.17;;
26965;SDS011;14522;52.068;4.414;2023-03-23T08:20:04;10.95;;;1.85;;
26965;SDS011;14522;52.068;4.414;2023-03-23T08:22:34;11.23;;;2.65;;
26965;SDS011;14522;52.068;4.414;2023-03-23T08:25:01;19.15;;;3.00;;
26965;SDS011;14522;52.068;4.414;2023-03-23T08:27:27;15.52;;;2.10;;
26965;SDS011;14522;52.068;4.414;2023-03-23T08:29:52;12.50;;;1.92;;
26965;SDS011;14522;52.068;4.414;2023-03-23T08:32:18;14.82;;;2.97;;
26965;SDS011;14522;52.068;4.414;2023-03-23T08:34:43;16.58;;;2.03;;
26965;SDS011;14522;52.068;4.414;2023-03-23T08:37:09;11.63;;;2.10;;
26965;SDS011;14522;52.068;4.414;2023-03-23T08:39:34;11.85;;;2.05;;
26965;SDS011;14522;52.068;4.414;2023-03-23T08:42:00;10.73;;;2.40;;
26965;SDS011;14522;52.068;4.414;2023-03-23T08:44:25;14.13;;;2.47;;
26965;SDS011;14522;52.068;4.414;2023-03-23T08:46:50;12.95;;;2.83;;
26965;SDS011;14522;52.068;4.414;2023-03-23T08:49:25;14.80;;;3.13;;
26965;SDS011;14522;52.068;4.414;2023-03-23T08:51:50;19.42;;;2.92;;
26965;SDS011;14522;52.068;4.414;2023-03-23T08:54:16;15.23;;;2.80;;
26965;SDS011;14522;52.068;4.414;2023-03-23T08:56:42;18.65;;;2.65;;
26965;SDS011;14522;52.068;4.414;2023-03-23T08:59:08;20.73;;;2.88;;
26965;SDS011;14522;52.068;4.414;2023-03-23T09:01:35;17.67;;;3.50;;
26965;SDS011;14522;52.068;4.414;2023-03-23T09:04:01;13.13;;;2.15;;
26965;SDS011;14522;52.068;4.414;2023-03-23T09:06:26;14.88;;;2.75;;
26965;SDS011;14522;52.068;4.414;2023-03-23T09:08:52;14.45;;;2.63;;
26965;SDS011;14522;52.068;4.414;2023-03-23T09:11:20;13.18;;;2.05;;
26965;SDS011;14522;52.068;4.414;2023-03-23T09:13:46;15.77;;;2.53;;
26965;SDS011;14522;52.068;4.414;2023-03-23T09:16:12;11.95;;;2.10;;
26965;SDS011;14522;52.068;4.414;2023-03-23T09:18:37;17.48;;;2.83;;
26965;SDS011;14522;52.068;4.414;2023-03-23T09:21:03;15.13;;;2.03;;
26965;SDS011;14522;52.068;4.414;2023-03-23T09:23:28;15.05;;;2.22;;
26965;SDS011;14522;52.068;4.414;2023-03-23T09:25:55;16.55;;;2.90;;
26965;SDS011;14522;52.068;4.414;2023-03-23T09:28:20;17.17;;;2.58;;
26965;SDS011;14522;52.068;4.414;2023-03-23T09:30:45;18.42;;;2.45;;
26965;SDS011;14522;52.068;4.414;2023-03-23T09:33:12;12.38;;;2.15;;
26965;SDS011;14522;52.068;4.414;2023-03-23T09:35:38;16.02;;;2.40;;
26965;SDS011;14522;52.068;4.414;2023-03-23T09:38:04;16.17;;;2.70;;
26965;SDS011;14522;52.068;4.414;2023-03-23T09:50:46;16.67;;;2.22;;
26965;SDS011;14522;52.068;4.414;2023-03-23T09:53:14;12.88;;;2.55;;
26965;SDS011;14522;52.068;4.414;2023-03-23T09:55:42;13.25;;;2.28;;
26965;SDS011;14522;52.068;4.414;2023-03-23T09:58:18;17.25;;;2.92;;
26965;SDS011;14522;52.068;4.414;2023-03-23T10:01:07;12.63;;;2.33;;
26965;SDS011;14522;52.068;4.414;2023-03-23T10:03:37;19.42;;;3.10;;
26965;SDS011;14522;52.068;4.414;2023-03-23T10:06:04;14.75;;;2.17;;
26965;SDS011;14522;52.068;4.414;2023-03-23T10:08:30;16.67;;;2.75;;
26965;SDS011;14522;52.068;4.414;2023-03-23T10:10:59;18.67;;;3.38;;
26965;SDS011;14522;52.068;4.414;2023-03-23T10:15:51;16.48;;;2.50;;
26965;SDS011;14522;52.068;4.414;2023-03-23T10:18:20;18.70;;;3.30;;
26965;SDS011;14522;52.068;4.414;2023-03-23T10:20:58;17.27;;;2.40;;
26965;SDS011;14522;52.068;4.414;2023-03-23T10:28:35;16.50;;;2.50;;
26965;SDS011;14522;52.068;4.414;2023-03-23T10:31:00;19.52;;;3.28;;
26965;SDS011;14522;52.068;4.414;2023-03-23T10:33:31;16.48;;;2.17;;
26965;SDS011;14522;52.068;4.414;2023-03-23T10:36:01;14.70;;;2.50;;
26965;SDS011;14522;52.068;4.414;2023-03-23T10:38:47;20.90;;;3.53;;
26965;SDS011;14522;52.068;4.414;2023-03-23T10:41:15;20.10;;;2.70;;
26965;SDS011;14522;52.068;4.414;2023-03-23T10:43:42;22.17;;;3.95;;
26965;SDS011;14522;52.068;4.414;2023-03-23T10:48:39;18.80;;;2.92;;
26965;SDS011;14522;52.068;4.414;2023-03-23T10:51:06;17.17;;;2.67;;
26965;SDS011;14522;52.068;4.414;2023-03-23T10:53:35;19.45;;;2.63;;
26965;SDS011;14522;52.068;4.414;2023-03-23T10:56:02;17.98;;;2.42;;
26965;SDS011;14522;52.068;4.414;2023-03-23T10:58:29;16.88;;;3.03;;
26965;SDS011;14522;52.068;4.414;2023-03-23T11:00:55;18.02;;;2.92;;
26965;SDS011;14522;52.068;4.414;2023-03-23T11:03:26;15.65;;;2.17;;
26965;SDS011;14522;52.068;4.414;2023-03-23T11:05:56;18.15;;;2.63;;
26965;SDS011;14522;52.068;4.414;2023-03-23T11:08:25;22.33;;;3.22;;
26965;SDS011;14522;52.068;4.414;2023-03-23T11:10:55;13.73;;;2.97;;
26965;SDS011;14522;52.068;4.414;2023-03-23T11:13:23;13.02;;;2.38;;
26965;SDS011;14522;52.068;4.414;2023-03-23T11:15:50;12.48;;;2.08;;
26965;SDS011;14522;52.068;4.414;2023-03-23T11:18:23;13.80;;;2.50;;
26965;SDS011;14522;52.068;4.414;2023-03-23T11:20:50;15.20;;;3.17;;
26965;SDS011;14522;52.068;4.414;2023-03-23T11:23:19;13.68;;;2.80;;
26965;SDS011;14522;52.068;4.414;2023-03-23T11:26:08;10.20;;;1.98;;
26965;SDS011;14522;52.068;4.414;2023-03-23T11:28:35;17.30;;;2.60;;
26965;SDS011;14522;52.068;4.414;2023-03-23T11:31:02;13.48;;;2.08;;
26965;SDS011;14522;52.068;4.414;2023-03-23T11:33:29;12.77;;;2.15;;
26965;SDS011;14522;52.068;4.414;2023-03-23T11:35:54;14.35;;;2.33;;
26965;SDS011;14522;52.068;4.414;2023-03-23T11:38:21;11.77;;;1.85;;
26965;SDS011;14522;52.068;4.414;2023-03-23T11:40:49;14.02;;;1.88;;
26965;SDS011;14522;52.068;4.414;2023-03-23T11:43:17;11.18;;;2.03;;
26965;SDS011;14522;52.068;4.414;2023-03-23T11:45:56;15.25;;;2.40;;
26965;SDS011;14522;52.068;4.414;2023-03-23T11:51:06;11.23;;;2.30;;
26965;SDS011;14522;52.068;4.414;2023-03-23T11:56:37;10.10;;;1.60;;
26965;SDS011;14522;52.068;4.414;2023-03-23T11:59:05;9.35;;;1.90;;
26965;SDS011;14522;52.068;4.414;2023-03-23T12:04:09;13.68;;;2.28;;
26965;SDS011;14522;52.068;4.414;2023-03-23T12:19:58;9.50;;;2.00;;
26965;SDS011;14522;52.068;4.414;2023-03-23T12:32:40;12.35;;;2.10;;
26965;SDS011;14522;52.068;4.414;2023-03-23T12:37:45;11.02;;;2.05;;
26965;SDS011;14522;52.068;4.414;2023-03-23T12:48:17;17.42;;;2.25;;
26965;SDS011;14522;52.068;4.414;2023-03-23T12:50:45;11.40;;;2.22;;
26965;SDS011;14522;52.068;4.414;2023-03-23T12:53:21;13.63;;;2.22;;
26965;SDS011;14522;52.068;4.414;2023-03-23T12:58:21;10.80;;;1.92;;
26965;SDS011;14522;52.068;4.414;2023-03-23T13:00:59;14.75;;;2.05;;
26965;SDS011;14522;52.068;4.414;2023-03-23T13:03:31;12.57;;;2.05;;
26965;SDS011;14522;52.068;4.414;2023-03-23T13:08:47;11.80;;;1.92;;
26965;SDS011;14522;52.068;4.414;2023-03-23T13:11:35;10.85;;;1.85;;
26965;SDS011;14522;52.068;4.414;2023-03-23T13:19:22;17.30;;;2.85;;
26965;SDS011;14522;52.068;4.414;2023-03-23T13:24:18;11.98;;;2.45;;
26965;SDS011;14522;52.068;4.414;2023-03-23T13:26:45;14.20;;;2.88;;
26965;SDS011;14522;52.068;4.414;2023-03-23T13:29:19;10.02;;;2.38;;
26965;SDS011;14522;52.068;4.414;2023-03-23T13:31:45;17.73;;;2.20;;
26965;SDS011;14522;52.068;4.414;2023-03-23T13:34:15;13.80;;;2.63;;
26965;SDS011;14522;52.068;4.414;2023-03-23T13:36:42;16.30;;;2.97;;
26965;SDS011;14522;52.068;4.414;2023-03-23T13:39:20;11.45;;;2.25;;
26965;SDS011;14522;52.068;4.414;2023-03-23T13:44:27;19.77;;;2.97;;
26965;SDS011;14522;52.068;4.414;2023-03-23T13:46:57;13.88;;;2.05;;
26965;SDS011;14522;52.068;4.414;2023-03-23T13:49:23;17.15;;;2.75;;
26965;SDS011;14522;52.068;4.414;2023-03-23T13:57:02;14.65;;;2.35;;
26965;SDS011;14522;52.068;4.414;2023-03-23T14:00:09;11.60;;;1.67;;
26965;SDS011;14522;52.068;4.414;2023-03-23T14:05:09;14.32;;;2.25;;
26965;SDS011;14522;52.068;4.414;2023-03-23T14:10:19;14.68;;;2.58;;
26965;SDS011;14522;52.068;4.414;2023-03-23T14:12:45;10.48;;;2.15;;
26965;SDS011;14522;52.068;4.414;2023-03-23T14:15:12;12.50;;;1.92;;
26965;SDS011;14522;52.068;4.414;2023-03-23T14:17:42;12.77;;;2.63;;
26965;SDS011;14522;52.068;4.414;2023-03-23T14:20:09;14.15;;;2.53;;
26965;SDS011;14522;52.068;4.414;2023-03-23T14:22:43;13.90;;;2.33;;
26965;SDS011;14522;52.068;4.414;2023-03-23T14:25:15;10.73;;;2.30;;
26965;SDS011;14522;52.068;4.414;2023-03-23T14:27:41;11.40;;;2.53;;
26965;SDS011;14522;52.068;4.414;2023-03-23T14:30:08;14.30;;;2.65;;
26965;SDS011;14522;52.068;4.414;2023-03-23T14:32:34;13.57;;;2.83;;
26965;SDS011;14522;52.068;4.414;2023-03-23T14:35:04;17.23;;;2.83;;
26965;SDS011;14522;52.068;4.414;2023-03-23T14:37:30;13.13;;;2.53;;
26965;SDS011;14522;52.068;4.414;2023-03-23T14:39:56;17.60;;;3.05;;
26965;SDS011;14522;52.068;4.414;2023-03-23T14:42:28;15.98;;;2.72;;
26965;SDS011;14522;52.068;4.414;2023-03-23T14:44:54;16.75;;;2.45;;
26965;SDS011;14522;52.068;4.414;2023-03-23T14:47:22;18.42;;;3.30;;
26965;SDS011;14522;52.068;4.414;2023-03-23T14:49:52;11.57;;;2.38;;
26965;SDS011;14522;52.068;4.414;2023-03-23T14:52:18;12.48;;;2.75;;
26965;SDS011;14522;52.068;4.414;2023-03-23T14:54:44;14.88;;;2.45;;
26965;SDS011;14522;52.068;4.414;2023-03-23T14:57:11;10.50;;;2.70;;
26965;SDS011;14522;52.068;4.414;2023-03-23T14:59:39;16.58;;;2.53;;
26965;SDS011;14522;52.068;4.414;2023-03-23T15:02:04;18.48;;;3.55;;
26965;SDS011;14522;52.068;4.414;2023-03-23T15:04:30;15.93;;;2.30;;
26965;SDS011;14522;52.068;4.414;2023-03-23T15:06:58;11.93;;;2.33;;
26965;SDS011;14522;52.068;4.414;2023-03-23T15:09:24;16.95;;;2.90;;
26965;SDS011;14522;52.068;4.414;2023-03-23T15:11:51;15.95;;;3.70;;
26965;SDS011;14522;52.068;4.414;2023-03-23T15:14:21;14.45;;;2.25;;
26965;SDS011;14522;52.068;4.414;2023-03-23T15:16:48;21.10;;;4.05;;
26965;SDS011;14522;52.068;4.414;2023-03-23T15:24:34;18.88;;;3.55;;
26965;SDS011;14522;52.068;4.414;2023-03-23T15:27:42;16.10;;;2.60;;
26965;SDS011;14522;52.068;4.414;2023-03-23T15:29:52;18.85;;;2.80;;
26965;SDS011;14522;52.068;4.414;2023-03-23T15:32:23;17.52;;;2.95;;
26965;SDS011;14522;52.068;4.414;2023-03-23T15:34:49;14.38;;;2.85;;
26965;SDS011;14522;52.068;4.414;2023-03-23T15:37:23;16.65;;;2.90;;
26965;SDS011;14522;52.068;4.414;2023-03-23T15:39:49;11.27;;;2.53;;
26965;SDS011;14522;52.068;4.414;2023-03-23T15:42:22;16.20;;;2.95;;
26965;SDS011;14522;52.068;4.414;2023-03-23T15:44:55;19.63;;;3.17;;
26965;SDS011;14522;52.068;4.414;2023-03-23T15:47:21;20.02;;;3.00;;
26965;SDS011;14522;52.068;4.414;2023-03-23T15:49:57;13.73;;;2.28;;
26965;SDS011;14522;52.068;4.414;2023-03-23T15:52:23;15.02;;;2.83;;
26965;SDS011;14522;52.068;4.414;2023-03-23T15:54:50;13.32;;;2.33;;
26965;SDS011;14522;52.068;4.414;2023-03-23T15:57:16;15.73;;;2.80;;
26965;SDS011;14522;52.068;4.414;2023-03-23T15:59:42;14.55;;;2.67;;
26965;SDS011;14522;52.068;4.414;2023-03-23T16:02:21;19.10;;;3.35;;
26965;SDS011;14522;52.068;4.414;2023-03-23T16:04:51;13.43;;;2.40;;
26965;SDS011;14522;52.068;4.414;2023-03-23T16:07:22;19.27;;;3.30;;
26965;SDS011;14522;52.068;4.414;2023-03-23T16:09:51;17.00;;;3.17;;
26965;SDS011;14522;52.068;4.414;2023-03-23T16:12:17;18.27;;;3.33;;
26965;SDS011;14522;52.068;4.414;2023-03-23T16:14:44;15.38;;;2.90;;
26965;SDS011;14522;52.068;4.414;2023-03-23T16:17:11;15.65;;;2.65;;
26965;SDS011;14522;52.068;4.414;2023-03-23T16:19:42;16.77;;;3.42;;
26965;SDS011;14522;52.068;4.414;2023-03-23T16:22:09;10.50;;;2.45;;
26965;SDS011;14522;52.068;4.414;2023-03-23T16:24:35;15.65;;;3.28;;
26965;SDS011;14522;52.068;4.414;2023-03-23T16:27:02;20.73;;;3.30;;
26965;SDS011;14522;52.068;4.414;2023-03-23T16:29:28;17.38;;;3.35;;
26965;SDS011;14522;52.068;4.414;2023-03-23T16:32:16;18.88;;;2.80;;
26965;SDS011;14522;52.068;4.414;2023-03-23T16:34:43;20.13;;;3.08;;
26965;SDS011;14522;52.068;4.414;2023-03-23T16:37:09;14.95;;;2.80;;
26965;SDS011;14522;52.068;4.414;2023-03-23T16:39:37;16.15;;;2.90;;
26965;SDS011;14522;52.068;4.414;2023-03-23T16:42:03;21.75;;;3.60;;
26965;SDS011;14522;52.068;4.414;2023-03-23T16:44:30;21.55;;;3.22;;
26965;SDS011;14522;52.068;4.414;2023-03-23T16:47:00;20.60;;;3.17;;
26965;SDS011;14522;52.068;4.414;2023-03-23T16:49:29;18.70;;;3.88;;